createdAt,value
2023-04-12T00:00:54.571Z,3.33
2023-04-12T00:03:22.123Z,3.10
2023-04-12T00:05:54.666Z,3.40
2023-04-12T00:08:26.577Z,3.20
2023-04-12T00:10:53.498Z,3.25
2023-04-12T00:13:20.420Z,3.53
2023-04-12T00:15:47.057Z,2.17
2023-04-12T00:18:13.697Z,2.75
2023-04-12T00:20:40.292Z,2.47
2023-04-12T00:23:07.179Z,2.22
2023-04-12T00:25:33.709Z,2.05
2023-04-12T00:28:00.218Z,2.60
2023-04-12T00:30:27.194Z,2.92
2023-04-12T00:32:53.809Z,4.07
2023-04-12T00:35:20.388Z,2.78
2023-04-12T00:37:46.912Z,2.55
2023-04-12T00:40:13.626Z,2.78
2023-04-12T00:42:40.246Z,3.00
2023-04-12T00:45:07.502Z,2.10
2023-04-12T00:47:38.001Z,1.92
2023-04-12T00:50:06.070Z,2.05
2023-04-12T00:52:36.499Z,2.47
2023-04-12T00:55:07.486Z,1.90
2023-04-12T00:57:37.354Z,1.58
2023-04-12T01:00:06.099Z,2.40
2023-04-12T01:02:33.637Z,2.20
2023-04-12T01:05:01.762Z,1.98
2023-04-12T01:07:54.369Z,2.25
2023-04-12T01:10:54.810Z,2.13
2023-04-12T01:13:41.546Z,2.72
2023-04-12T01:16:11.239Z,2.40
2023-04-12T01:18:41.758Z,2.90
2023-04-12T01:21:18.708Z,2.05
2023-04-12T01:24:06.736Z,2.00
2023-04-12T01:26:37.183Z,2.65
2023-04-12T01:29:09.620Z,1.80
2023-04-12T01:31:37.070Z,2.40
2023-04-12T01:34:04.991Z,2.40
2023-04-12T01:36:32.390Z,3.20
2023-04-12T01:39:00.910Z,2.42
2023-04-12T01:41:27.530Z,2.47
2023-04-12T01:43:54.128Z,2.75
2023-04-12T01:46:23.233Z,2.38
2023-04-12T01:48:52.087Z,2.50
2023-04-12T01:51:25.567Z,2.70
2023-04-12T01:53:59.950Z,2.97
2023-04-12T01:56:32.029Z,2.88
2023-04-12T01:58:59.368Z,2.60
2023-04-12T02:01:26.623Z,3.35
2023-04-12T02:03:53.916Z,3.83
2023-04-12T02:06:21.032Z,2.55
2023-04-12T02:08:48.190Z,3.00
2023-04-12T02:11:14.974Z,3.33
2023-04-12T02:13:41.614Z,3.25
2023-04-12T02:16:10.804Z,2.20
2023-04-12T02:18:37.574Z,3.10
2023-04-12T02:21:04.234Z,2.80
2023-04-12T02:23:30.793Z,2.38
2023-04-12T02:25:57.811Z,2.10
2023-04-12T02:28:24.377Z,3.00
2023-04-12T02:30:53.902Z,2.58
2023-04-12T02:33:28.200Z,2.55
2023-04-12T02:35:56.258Z,2.28
2023-04-12T02:38:23.486Z,2.45
2023-04-12T02:40:50.018Z,2.28
2023-04-12T02:43:16.565Z,2.90
2023-04-12T02:45:43.153Z,2.53
2023-04-12T02:48:09.819Z,2.65
2023-04-12T02:50:37.527Z,2.13
2023-04-12T02:53:04.087Z,2.25
2023-04-12T02:55:30.755Z,2.45
2023-04-12T02:57:57.521Z,2.40
2023-04-12T03:00:24.401Z,2.83
2023-04-12T03:02:51.564Z,2.55
2023-04-12T03:05:18.924Z,1.90
2023-04-12T03:07:46.256Z,2.22
2023-04-12T03:10:13.369Z,2.08
2023-04-12T03:12:39.979Z,2.25
2023-04-12T03:15:07.083Z,2.75
2023-04-12T03:17:33.648Z,3.80
2023-04-12T03:20:09.748Z,2.65
2023-04-12T03:22:37.343Z,2.83
2023-04-12T03:25:05.196Z,2.20
2023-04-12T03:27:31.928Z,2.70
2023-04-12T03:29:58.475Z,2.78
2023-04-12T03:32:25.787Z,2.35
2023-04-12T03:34:52.440Z,3.03
2023-04-12T03:37:19.309Z,2.75
2023-04-12T03:39:48.085Z,2.67
2023-04-12T03:42:29.405Z,2.70
2023-04-12T03:44:59.350Z,2.67
2023-04-12T03:47:26.408Z,2.92
2023-04-12T03:50:10.445Z,1.95
2023-04-12T03:52:38.358Z,2.42
2023-04-12T03:55:07.453Z,1.90
2023-04-12T03:57:34.919Z,2.83
2023-04-12T04:00:02.958Z,2.13
2023-04-12T04:02:30.159Z,3.65
2023-04-12T04:04:57.013Z,3.03
2023-04-12T04:07:23.743Z,2.60
2023-04-12T04:09:50.412Z,2.15
2023-04-12T04:12:17.113Z,2.88
2023-04-12T04:14:44.265Z,2.95
2023-04-12T04:17:11.133Z,2.72
2023-04-12T04:19:38.309Z,2.72
2023-04-12T04:22:04.915Z,2.70
2023-04-12T04:24:31.547Z,2.65
2023-04-12T04:26:58.817Z,2.72
2023-04-12T04:29:26.161Z,3.33
2023-04-12T04:31:53.795Z,2.63
2023-04-12T04:34:22.249Z,2.88
2023-04-12T04:36:48.906Z,2.80
2023-04-12T04:39:15.876Z,3.13
2023-04-12T04:41:42.617Z,2.85
2023-04-12T04:44:10.585Z,2.40
2023-04-12T04:46:38.091Z,3.28
2023-04-12T04:49:05.849Z,2.88
2023-04-12T04:51:32.592Z,2.70
2023-04-12T04:53:59.366Z,2.85
2023-04-12T04:56:26.308Z,2.50
2023-04-12T04:58:54.729Z,2.55
2023-04-12T05:01:26.276Z,2.92
2023-04-12T05:03:53.084Z,2.72
2023-04-12T05:06:19.676Z,3.13
2023-04-12T05:08:46.272Z,3.03
2023-04-12T05:11:12.867Z,3.72
2023-04-12T05:13:39.397Z,3.70
2023-04-12T05:16:08.038Z,3.67
2023-04-12T05:18:34.683Z,4.20
2023-04-12T05:21:05.772Z,3.80
2023-04-12T05:23:37.143Z,4.43
2023-04-12T05:26:04.381Z,3.83
2023-04-12T05:28:30.956Z,4.20
2023-04-12T05:30:57.540Z,4.03
2023-04-12T05:33:24.186Z,3.50
2023-04-12T05:35:50.782Z,3.72
2023-04-12T05:38:17.419Z,3.92
2023-04-12T05:40:44.346Z,4.20
2023-04-12T05:43:14.070Z,3.92
2023-04-12T05:45:41.662Z,3.85
2023-04-12T05:48:09.269Z,4.18
2023-04-12T05:50:36.122Z,4.97
2023-04-12T05:53:03.583Z,6.03
2023-04-12T05:55:30.506Z,4.72
2023-04-12T05:57:58.600Z,4.22
2023-04-12T06:00:26.382Z,4.72
2023-04-12T06:02:53.152Z,4.40
2023-04-12T06:05:20.007Z,3.92
2023-04-12T06:07:49.733Z,5.07
2023-04-12T06:10:17.734Z,4.88
2023-04-12T06:12:44.905Z,4.88
2023-04-12T06:15:12.026Z,5.13
2023-04-12T06:17:39.172Z,5.07
2023-04-12T06:20:09.943Z,4.90
2023-04-12T06:22:37.257Z,5.32
2023-04-12T06:25:04.842Z,5.55
2023-04-12T06:27:31.869Z,5.78
2023-04-12T06:29:59.290Z,6.05
2023-04-12T06:32:26.268Z,5.70
2023-04-12T06:34:53.089Z,5.18
2023-04-12T06:37:19.632Z,6.85
2023-04-12T06:39:46.248Z,6.30
2023-04-12T06:42:14.863Z,6.80
2023-04-12T06:44:42.397Z,6.38
2023-04-12T06:47:09.517Z,6.45
2023-04-12T06:49:36.181Z,6.82
2023-04-12T06:52:02.807Z,6.85
2023-04-12T06:54:29.394Z,6.05
2023-04-12T06:56:57.406Z,7.03
2023-04-12T06:59:24.179Z,6.88
2023-04-12T07:01:50.816Z,5.75
2023-04-12T07:04:17.591Z,6.35
2023-04-12T07:06:44.336Z,5.35
2023-04-12T07:09:10.958Z,6.30
2023-04-12T07:11:37.598Z,6.57
2023-04-12T07:14:04.346Z,5.65
2023-04-12T07:16:34.120Z,5.60
2023-04-12T07:19:00.929Z,5.10
2023-04-12T07:21:27.879Z,5.50
2023-04-12T07:23:56.152Z,5.55
2023-04-12T07:26:23.223Z,5.90
2023-04-12T07:28:49.872Z,5.60
2023-04-12T07:31:16.446Z,6.10
2023-04-12T07:33:43.799Z,6.25
2023-04-12T07:36:11.727Z,5.88
2023-04-12T07:38:38.334Z,6.15
2023-04-12T07:41:05.114Z,6.78
2023-04-12T07:43:31.671Z,6.57
2023-04-12T07:45:58.759Z,6.15
2023-04-12T07:48:25.373Z,6.25
2023-04-12T07:50:52.051Z,5.65
2023-04-12T07:53:28.694Z,6.03
2023-04-12T07:55:56.383Z,5.40
2023-04-12T07:58:24.586Z,4.38
2023-04-12T08:00:51.814Z,5.20
2023-04-12T08:03:19.015Z,4.93
2023-04-12T08:05:49.486Z,5.60
2023-04-12T08:08:16.764Z,5.40
2023-04-12T08:10:43.391Z,4.78
2023-04-12T08:13:09.936Z,5.35
2023-04-12T08:15:36.815Z,5.50
2023-04-12T08:18:04.234Z,5.95
2023-04-12T08:20:31.689Z,6.00
2023-04-12T08:22:58.625Z,5.15
2023-04-12T08:25:25.241Z,5.78
2023-04-12T08:27:51.958Z,5.38
2023-04-12T08:30:19.565Z,5.18
2023-04-12T08:32:46.357Z,5.43
2023-04-12T08:35:15.375Z,3.97
2023-04-12T08:37:42.264Z,4.10
2023-04-12T08:40:09.382Z,4.05
2023-04-12T08:42:37.409Z,3.10
2023-04-12T08:45:09.665Z,3.63
2023-04-12T08:47:43.472Z,3.38
2023-04-12T08:50:13.905Z,3.67
2023-04-12T08:52:41.848Z,3.67
2023-04-12T08:55:10.161Z,3.63
2023-04-12T08:57:41.975Z,3.30
2023-04-12T09:00:10.522Z,2.92
2023-04-12T09:02:38.434Z,2.70
2023-04-12T09:05:06.768Z,3.10
2023-04-12T09:07:34.444Z,3.10
2023-04-12T09:10:01.946Z,2.90
2023-04-12T09:12:28.670Z,3.47
2023-04-12T09:15:13.423Z,2.88
2023-04-12T09:17:42.042Z,3.20
2023-04-12T09:20:17.689Z,2.53
2023-04-12T09:22:46.689Z,2.90
2023-04-12T09:25:15.068Z,3.17
2023-04-12T09:27:51.833Z,2.88
2023-04-12T09:30:20.455Z,3.00
2023-04-12T09:32:49.538Z,2.80
2023-04-12T09:35:16.548Z,3.00
2023-04-12T09:37:43.310Z,2.80
2023-04-12T09:40:10.661Z,2.63
2023-04-12T09:42:51.684Z,2.83
2023-04-12T09:45:26.420Z,2.90
2023-04-12T09:47:53.989Z,3.13
2023-04-12T09:50:22.982Z,3.03
2023-04-12T09:52:50.323Z,2.80
2023-04-12T09:55:18.231Z,2.63
2023-04-12T09:57:45.751Z,2.80
2023-04-12T10:00:17.730Z,2.40
2023-04-12T10:02:47.434Z,3.00
2023-04-12T10:05:19.668Z,3.22
2023-04-12T10:07:47.525Z,2.00
2023-04-12T10:10:16.571Z,2.55
2023-04-12T10:12:45.773Z,2.30
2023-04-12T10:15:13.527Z,3.03
2023-04-12T10:17:45.780Z,3.20
2023-04-12T10:20:18.178Z,2.80
2023-04-12T10:22:50.481Z,2.97
2023-04-12T10:25:23.796Z,2.65
2023-04-12T10:27:50.667Z,2.00
2023-04-12T10:30:33.227Z,2.10
2023-04-12T10:33:02.520Z,2.40
2023-04-12T10:35:30.448Z,2.58
2023-04-12T10:38:01.636Z,2.25
2023-04-12T10:40:32.633Z,2.45
2023-04-12T10:43:22.506Z,2.35
2023-04-12T10:45:49.888Z,1.90
2023-04-12T10:48:29.453Z,2.03
2023-04-12T10:51:23.484Z,2.00
2023-04-12T10:53:51.066Z,1.93
2023-04-12T10:56:32.047Z,1.90
2023-04-12T10:59:09.381Z,2.05
2023-04-12T11:01:38.892Z,1.85
2023-04-12T11:04:10.017Z,1.63
2023-04-12T11:07:10.270Z,1.73
2023-04-12T11:09:36.847Z,1.60
2023-04-12T11:12:09.444Z,1.95
2023-04-12T11:14:50.786Z,1.73
2023-04-12T11:17:17.445Z,1.60
2023-04-12T11:19:58.398Z,1.30
2023-04-12T11:22:31.312Z,1.95
2023-04-12T11:25:00.768Z,1.50
2023-04-12T11:27:29.057Z,1.35
2023-04-12T11:29:58.774Z,1.02
2023-04-12T11:32:27.869Z,1.25
2023-04-12T11:34:56.568Z,1.27
2023-04-12T11:37:24.230Z,1.45
2023-04-12T11:39:53.600Z,1.60
2023-04-12T11:42:23.803Z,2.15
2023-04-12T11:44:58.833Z,1.40
2023-04-12T11:47:27.432Z,1.75
2023-04-12T11:49:55.971Z,1.27
2023-04-12T11:52:30.388Z,1.52
2023-04-12T11:55:06.731Z,2.00
2023-04-12T11:57:35.555Z,1.77
2023-04-12T12:00:05.959Z,1.73
2023-04-12T12:02:41.159Z,2.00
2023-04-12T12:05:13.143Z,1.67
2023-04-12T12:07:40.082Z,1.33
2023-04-12T12:10:07.581Z,1.80
2023-04-12T12:12:34.290Z,1.80
2023-04-12T12:15:02.202Z,1.60
2023-04-12T12:17:29.069Z,1.77
2023-04-12T12:19:59.365Z,1.90
2023-04-12T12:22:26.126Z,2.15
2023-04-12T12:24:56.699Z,2.38
2023-04-12T12:27:38.003Z,2.08
2023-04-12T12:30:07.728Z,2.53
2023-04-12T12:32:37.151Z,1.98
2023-04-12T12:35:09.424Z,1.98
2023-04-12T12:37:36.441Z,2.25
2023-04-12T12:40:14.202Z,2.67
2023-04-12T12:42:59.299Z,2.50
2023-04-12T12:45:28.246Z,2.45
2023-04-12T12:48:03.209Z,2.63
2023-04-12T12:50:35.951Z,2.70
2023-04-12T12:53:04.277Z,2.20
2023-04-12T12:55:31.411Z,3.42
2023-04-12T12:58:06.633Z,2.90
2023-04-12T13:00:34.529Z,3.05
2023-04-12T13:03:01.764Z,4.57
2023-04-12T13:05:30.004Z,1.52
2023-04-12T13:07:56.560Z,0.50
2023-04-12T13:10:23.864Z,1.05
2023-04-12T13:12:50.794Z,0.57
2023-04-12T13:15:22.896Z,0.65
2023-04-12T13:17:53.754Z,0.50
2023-04-12T13:20:21.081Z,0.60
2023-04-12T13:22:47.734Z,0.80
2023-04-12T13:25:14.375Z,0.80
2023-04-12T13:27:41.072Z,0.45
2023-04-12T13:30:08.515Z,0.57
2023-04-12T13:32:36.200Z,1.85
2023-04-12T13:35:03.384Z,1.83
2023-04-12T13:37:30.123Z,0.63
2023-04-12T13:39:56.846Z,0.50
2023-04-12T13:42:23.849Z,0.90
2023-04-12T13:44:50.511Z,0.82
2023-04-12T13:47:18.002Z,0.40
2023-04-12T13:49:44.942Z,0.52
2023-04-12T13:52:14.243Z,0.73
2023-04-12T13:54:41.242Z,0.50
2023-04-12T13:57:08.107Z,0.63
2023-04-12T13:59:34.920Z,1.17
2023-04-12T14:02:01.746Z,0.30
2023-04-12T14:04:29.553Z,0.88
2023-04-12T14:06:57.063Z,0.50
2023-04-12T14:09:25.927Z,0.63
2023-04-12T14:11:55.313Z,0.45
2023-04-12T14:14:22.522Z,0.55
2023-04-12T14:16:51.817Z,0.75
2023-04-12T14:19:18.378Z,0.50
2023-04-12T14:21:45.024Z,0.50
2023-04-12T14:24:11.585Z,0.55
2023-04-12T14:26:39.922Z,0.60
2023-04-12T14:29:07.050Z,0.50
2023-04-12T14:31:36.154Z,0.50
2023-04-12T14:34:03.644Z,0.63
2023-04-12T14:36:31.860Z,0.52
2023-04-12T14:38:58.553Z,0.65
2023-04-12T14:41:25.800Z,0.75
2023-04-12T14:43:52.354Z,0.60
2023-04-12T14:46:19.107Z,0.90
2023-04-12T14:48:45.660Z,0.90
2023-04-12T14:51:12.184Z,0.80
2023-04-12T14:53:39.191Z,1.30
2023-04-12T14:56:16.929Z,0.68
2023-04-12T14:58:43.627Z,0.85
2023-04-12T15:01:12.745Z,0.68
2023-04-12T15:03:42.371Z,1.08
2023-04-12T15:06:09.235Z,0.80
2023-04-12T15:08:41.648Z,1.10
2023-04-12T15:11:10.572Z,1.00
2023-04-12T15:13:41.728Z,0.70
2023-04-12T15:16:09.339Z,1.17
2023-04-12T15:18:38.366Z,0.80
2023-04-12T15:21:12.888Z,0.80
2023-04-12T15:23:41.869Z,0.60
2023-04-12T15:26:12.398Z,1.00
2023-04-12T15:28:39.032Z,0.85
2023-04-12T15:31:06.381Z,1.02
2023-04-12T15:33:34.502Z,1.15
2023-04-12T15:36:02.379Z,1.60
2023-04-12T15:38:29.962Z,1.00
2023-04-12T15:41:01.569Z,1.50
2023-04-12T15:43:28.880Z,1.42
2023-04-12T15:45:56.270Z,0.77
2023-04-12T15:48:24.828Z,1.30
2023-04-12T15:50:52.358Z,1.00
2023-04-12T15:53:21.124Z,1.13
2023-04-12T15:55:47.776Z,1.40
2023-04-12T15:58:14.832Z,1.10
2023-04-12T16:00:42.229Z,1.00
2023-04-12T16:03:09.337Z,0.77
2023-04-12T16:05:36.485Z,1.15
2023-04-12T16:08:03.507Z,1.88
2023-04-12T16:10:30.534Z,0.80
2023-04-12T16:12:57.938Z,1.40
2023-04-12T16:15:24.531Z,0.82
2023-04-12T16:17:55.727Z,0.70
2023-04-12T16:20:23.011Z,0.93
2023-04-12T16:22:58.153Z,0.80
2023-04-12T16:25:28.007Z,1.13
2023-04-12T16:27:55.595Z,0.88
2023-04-12T16:30:23.010Z,1.30
2023-04-12T16:32:51.223Z,1.10
2023-04-12T16:35:17.988Z,1.45
2023-04-12T16:37:46.213Z,0.98
2023-04-12T16:40:13.129Z,0.70
2023-04-12T16:42:44.044Z,1.83
2023-04-12T16:45:12.234Z,0.77
2023-04-12T16:47:39.902Z,0.70
2023-04-12T16:50:09.208Z,0.73
2023-04-12T16:52:36.932Z,0.73
2023-04-12T16:55:04.206Z,0.85
2023-04-12T16:57:31.302Z,1.27
2023-04-12T16:59:58.066Z,0.55
2023-04-12T17:02:25.093Z,1.42
2023-04-12T17:04:52.067Z,0.80
2023-04-12T17:07:19.078Z,1.42
2023-04-12T17:09:45.974Z,0.68
2023-04-12T17:12:12.913Z,0.40
2023-04-12T17:14:39.554Z,0.75
2023-04-12T17:17:06.779Z,0.55
2023-04-12T17:19:33.820Z,0.88
2023-04-12T17:22:00.753Z,1.02
2023-04-12T17:24:28.649Z,0.70
2023-04-12T17:26:55.305Z,0.93
2023-04-12T17:29:21.856Z,0.95
2023-04-12T17:31:50.693Z,1.02
2023-04-12T17:34:19.836Z,0.85
2023-04-12T17:36:46.892Z,2.00
2023-04-12T17:39:13.583Z,0.68
2023-04-12T17:41:40.364Z,1.20
2023-04-12T17:44:07.852Z,0.70
2023-04-12T17:46:35.598Z,1.85
2023-04-12T17:49:05.663Z,1.42
2023-04-12T17:51:33.164Z,2.42
2023-04-12T17:54:00.730Z,0.98
2023-04-12T17:56:28.031Z,1.80
2023-04-12T17:58:55.471Z,1.73
2023-04-12T18:01:22.522Z,1.00
2023-04-12T18:03:49.554Z,1.58
2023-04-12T18:06:18.749Z,1.25
2023-04-12T18:08:47.076Z,1.30
2023-04-12T18:11:13.787Z,1.10
2023-04-12T18:13:40.909Z,1.58
2023-04-12T18:16:07.474Z,1.42
2023-04-12T18:18:34.255Z,1.10
2023-04-12T18:21:04.420Z,1.05
2023-04-12T18:23:30.953Z,1.48
2023-04-12T18:25:57.698Z,1.25
2023-04-12T18:28:24.858Z,1.45
2023-04-12T18:30:51.476Z,1.15
2023-04-12T18:33:18.342Z,1.45
2023-04-12T18:35:44.926Z,1.70
2023-04-12T18:38:11.529Z,1.55
2023-04-12T18:40:38.877Z,1.50
2023-04-12T18:43:05.466Z,1.95
2023-04-12T18:45:32.237Z,1.80
2023-04-12T18:48:00.408Z,1.25
2023-04-12T18:50:27.326Z,0.82
2023-04-12T18:52:53.858Z,0.73
2023-04-12T18:55:20.605Z,1.13
2023-04-12T18:57:49.145Z,1.02
2023-04-12T19:00:16.493Z,1.00
2023-04-12T19:02:43.543Z,1.40
2023-04-12T19:05:11.699Z,1.25
2023-04-12T19:07:38.375Z,1.20
2023-04-12T19:10:05.228Z,1.10
2023-04-12T19:12:32.150Z,1.40
2023-04-12T19:14:59.047Z,0.90
2023-04-12T19:17:27.819Z,1.10
2023-04-12T19:19:54.618Z,1.00
2023-04-12T19:22:21.517Z,1.17
2023-04-12T19:24:49.933Z,0.93
2023-04-12T19:27:16.801Z,1.42
2023-04-12T19:29:44.135Z,1.10
2023-04-12T19:32:13.463Z,1.05
2023-04-12T19:34:41.840Z,1.27
2023-04-12T19:37:08.703Z,1.48
2023-04-12T19:39:36.181Z,1.10
2023-04-12T19:42:03.420Z,1.33
2023-04-12T19:44:30.534Z,1.10
2023-04-12T19:46:57.497Z,1.27
2023-04-12T19:49:24.088Z,1.42
2023-04-12T19:51:51.760Z,1.30
2023-04-12T19:54:23.898Z,2.30
2023-04-12T19:56:50.617Z,2.47
2023-04-12T19:59:17.898Z,1.92
2023-04-12T20:01:50.517Z,1.38
2023-04-12T20:04:21.754Z,1.42
2023-04-12T20:06:52.018Z,1.90
2023-04-12T20:09:19.059Z,1.15
2023-04-12T20:11:46.124Z,1.63
2023-04-12T20:14:12.738Z,1.67
2023-04-12T20:16:42.705Z,1.85
2023-04-12T20:19:10.116Z,1.77
2023-04-12T20:21:36.787Z,1.83
2023-04-12T20:24:04.154Z,1.60
2023-04-12T20:26:34.081Z,1.80
2023-04-12T20:29:01.465Z,2.72
2023-04-12T20:31:28.479Z,1.42
2023-04-12T20:33:56.439Z,1.85
2023-04-12T20:36:23.664Z,1.60
2023-04-12T20:38:51.358Z,1.77
2023-04-12T20:41:18.678Z,1.10
2023-04-12T20:43:47.651Z,1.40
2023-04-12T20:46:17.483Z,1.70
2023-04-12T20:48:46.450Z,1.63
2023-04-12T20:51:14.728Z,1.73
2023-04-12T20:53:45.692Z,1.83
2023-04-12T20:56:13.147Z,1.85
2023-04-12T20:58:39.751Z,2.80
2023-04-12T21:01:07.732Z,2.25
2023-04-12T21:03:35.910Z,1.75
2023-04-12T21:06:02.824Z,1.70
2023-04-12T21:08:31.648Z,1.58
2023-04-12T21:10:58.810Z,2.35
2023-04-12T21:13:26.620Z,2.22
2023-04-12T21:15:54.457Z,1.83
2023-04-12T21:18:22.088Z,1.63
2023-04-12T21:20:49.823Z,1.17
2023-04-12T21:23:17.583Z,1.77
2023-04-12T21:25:48.070Z,1.20
2023-04-12T21:28:14.948Z,1.30
2023-04-12T21:30:42.165Z,1.77
2023-04-12T21:33:08.911Z,1.52
2023-04-12T21:35:35.571Z,2.17
2023-04-12T21:38:02.183Z,1.58
2023-04-12T21:40:29.025Z,1.98
2023-04-12T21:42:56.487Z,1.42
2023-04-12T21:45:25.048Z,1.85
2023-04-12T21:47:53.440Z,1.50
2023-04-12T21:50:20.403Z,1.73
2023-04-12T21:52:47.408Z,1.45
2023-04-12T21:55:13.990Z,1.58
2023-04-12T21:57:40.539Z,1.77
2023-04-12T22:00:09.972Z,1.48
2023-04-12T22:02:36.976Z,1.15
2023-04-12T22:05:04.095Z,1.67
2023-04-12T22:07:30.700Z,1.52
2023-04-12T22:09:58.664Z,2.22
2023-04-12T22:12:25.821Z,1.67
2023-04-12T22:14:52.759Z,1.27
2023-04-12T22:17:21.502Z,1.27
2023-04-12T22:19:48.384Z,1.92
2023-04-12T22:22:16.187Z,1.60
2023-04-12T22:24:44.151Z,1.85
2023-04-12T22:27:10.782Z,1.30
2023-04-12T22:29:37.876Z,1.17
2023-04-12T22:32:04.755Z,1.52
2023-04-12T22:34:32.473Z,1.58
2023-04-12T22:36:58.988Z,1.95
2023-04-12T22:39:26.974Z,2.40
2023-04-12T22:41:53.779Z,1.42
2023-04-12T22:44:23.687Z,1.10
2023-04-12T22:46:54.396Z,1.73
2023-04-12T22:49:28.393Z,2.42
2023-04-12T22:51:55.795Z,1.75
2023-04-12T22:54:26.001Z,1.50
2023-04-12T22:56:52.679Z,1.40
2023-04-12T22:59:20.144Z,2.08
2023-04-12T23:01:47.267Z,1.40
2023-04-12T23:04:15.832Z,1.17
2023-04-12T23:06:44.041Z,1.15
2023-04-12T23:09:11.989Z,1.38
2023-04-12T23:11:40.855Z,1.45
2023-04-12T23:14:08.959Z,1.05
2023-04-12T23:16:36.029Z,1.52
2023-04-12T23:19:05.307Z,1.65
2023-04-12T23:21:32.626Z,1.80
2023-04-12T23:23:59.384Z,1.25
2023-04-12T23:26:27.535Z,2.08
2023-04-12T23:28:54.157Z,1.70
2023-04-12T23:31:20.720Z,2.42
2023-04-12T23:33:47.341Z,1.80
2023-04-12T23:36:14.218Z,1.73
2023-04-12T23:38:44.254Z,1.80
2023-04-12T23:41:12.571Z,1.50
2023-04-12T23:43:39.248Z,1.38
2023-04-12T23:46:06.733Z,1.52
2023-04-12T23:48:33.500Z,2.00
2023-04-12T23:51:00.349Z,0.93
2023-04-12T23:53:27.089Z,1.30
2023-04-12T23:55:53.768Z,1.48
2023-04-12T23:58:21.073Z,1.33
